Terminal Aerodrome Forecast
Issued by NWS

Home | Current Version | Previous Version | Text Only | Print | Product List | Glossary On
Versions: 1 2 3 4 5 6 7 8 9 10 11 12 13 14 15
000
FTUS43 KLSX 180520
TAFUIN
TAF
KUIN 180520Z 1806/1906 10012KT P6SM FEW090
     FM180800 09015G22KT P6SM SCT080
     FM181400 13013G20KT P6SM VCSH OVC020
     FM181700 28014G26KT P6SM VCSH OVC015
     FM182000 30018G29KT P6SM OVC020
     FM190100 31014KT P6SM OVC025=

USA.gov is the U.S. government's official web portal to all federal, state and local government web resources and services.